createdAt,value
2017-08-22T00:00:40.634Z,92.5
2017-08-22T00:01:48.109Z,92.1
2017-08-22T00:02:55.584Z,91.7
2017-08-22T00:04:03.054Z,92.3
2017-08-22T00:05:10.824Z,92.7
2017-08-22T00:06:18.294Z,92.3
2017-08-22T00:07:25.770Z,91.9
2017-08-22T00:08:33.240Z,92
2017-08-22T00:09:40.724Z,92
2017-08-22T00:10:48.551Z,91.5
2017-08-22T00:11:55.691Z,91.1
2017-08-22T00:13:03.173Z,91.6
2017-08-22T00:14:10.654Z,91.5
2017-08-22T00:15:18.128Z,92.4
2017-08-22T00:16:25.906Z,92.8
2017-08-22T00:17:33.383Z,92.9
2017-08-22T00:18:40.865Z,92.3
2017-08-22T00:19:48.343Z,92.1
2017-08-22T00:20:55.500Z,92.6
2017-08-22T00:22:03.314Z,92.7
2017-08-22T00:23:10.137Z,92.4
2017-08-22T00:24:17.615Z,93.5
2017-08-22T00:25:25.088Z,93.2
2017-08-22T00:26:32.225Z,92.4
2017-08-22T00:27:39.676Z,92.9
2017-08-22T00:28:47.150Z,92.8
2017-08-22T00:29:54.625Z,93.1
2017-08-22T00:31:02.103Z,93.2
2017-08-22T00:32:09.572Z,93
2017-08-22T00:33:17.347Z,91.9
2017-08-22T00:34:24.823Z,92.6
2017-08-22T00:35:32.296Z,93.5
2017-08-22T00:36:39.775Z,93.5
2017-08-22T00:37:47.248Z,93
2017-08-22T00:38:55.015Z,93.4
2017-08-22T00:40:02.161Z,93.3
2017-08-22T00:41:09.637Z,93.3
2017-08-22T00:42:17.114Z,93.6
2017-08-22T00:43:24.592Z,93.2
2017-08-22T00:44:32.365Z,93.4
2017-08-22T00:45:39.850Z,93.3
2017-08-22T00:46:47.327Z,93.4
2017-08-22T00:47:54.803Z,93.3
2017-08-22T00:49:02.276Z,93
2017-08-22T00:50:09.722Z,93
2017-08-22T00:51:17.198Z,92.8
2017-08-22T00:52:24.675Z,93.1
2017-08-22T00:53:32.152Z,93.6
2017-08-22T00:54:39.626Z,93.6
2017-08-22T00:55:47.404Z,93.9
2017-08-22T00:56:54.876Z,93.9
2017-08-22T00:58:02.020Z,93.1
2017-08-22T00:59:09.497Z,93.1
2017-08-22T01:00:16.974Z,93.9
2017-08-22T01:01:24.746Z,93.6
2017-08-22T01:02:32.221Z,93.7
2017-08-22T01:03:39.696Z,93.7
2017-08-22T01:04:46.840Z,93.9
2017-08-22T01:05:54.315Z,94
2017-08-22T01:07:01.764Z,93.7
2017-08-22T01:08:09.249Z,93.7
2017-08-22T01:09:16.724Z,93.7
2017-08-22T01:10:24.201Z,92.1
2017-08-22T01:11:31.677Z,93.1
2017-08-22T01:12:39.451Z,92.7
2017-08-22T01:13:46.922Z,92.6
2017-08-22T01:14:54.392Z,92.4
2017-08-22T01:16:01.883Z,92.3
2017-08-22T01:17:09.066Z,92.3
2017-08-22T01:18:16.861Z,92.6
2017-08-22T01:19:24.339Z,92.6
2017-08-22T01:20:31.819Z,92.1
2017-08-22T01:21:39.292Z,92.3
2017-08-22T01:22:46.762Z,92.9
2017-08-22T01:23:54.540Z,93.1
2017-08-22T01:25:02.030Z,92.2
2017-08-22T01:26:09.502Z,93.6
2017-08-22T01:27:16.972Z,93.6
2017-08-22T01:28:24.448Z,93.1
2017-08-22T01:29:31.895Z,91.7
2017-08-22T01:30:39.369Z,93.3
2017-08-22T01:31:46.845Z,93
2017-08-22T01:32:53.989Z,92.4
2017-08-22T01:34:01.133Z,92.9
2017-08-22T01:35:08.901Z,93.8
2017-08-22T01:36:16.380Z,93.8
2017-08-22T01:37:23.865Z,93.9
2017-08-22T01:38:31.336Z,93.1
2017-08-22T01:39:38.803Z,92.4
2017-08-22T01:40:46.579Z,93.4
2017-08-22T01:41:54.051Z,93.5
2017-08-22T01:43:01.531Z,93.8
2017-08-22T01:44:09.001Z,93.4
2017-08-22T01:45:16.479Z,94.6
2017-08-22T01:46:24.247Z,95.6
2017-08-22T01:47:31.726Z,96.6
2017-08-22T01:48:39.200Z,96.8
2017-08-22T01:49:46.346Z,97
2017-08-22T01:50:53.820Z,97.2
2017-08-22T01:52:01.605Z,97.2
2017-08-22T01:53:09.082Z,96.3
2017-08-22T01:54:16.562Z,95.8
2017-08-22T01:55:24.036Z,96.1
2017-08-22T01:56:31.178Z,95.2
2017-08-22T01:57:38.978Z,95.8
2017-08-22T01:58:46.457Z,96.7
2017-08-22T01:59:53.270Z,97.1
2017-08-22T02:01:00.741Z,97.3
2017-08-22T02:02:08.309Z,97.4
2017-08-22T02:03:16.078Z,97.4
2017-08-22T02:04:23.555Z,97.5
2017-08-22T02:05:31.028Z,97.2
2017-08-22T02:06:38.503Z,97.1
2017-08-22T02:07:45.980Z,96.8
2017-08-22T02:08:53.762Z,96.4
2017-08-22T02:10:00.900Z,95.9
2017-08-22T02:11:08.380Z,95.2
2017-08-22T02:12:15.852Z,94.9
2017-08-22T02:13:23.325Z,95.5
2017-08-22T02:14:31.096Z,95.6
2017-08-22T02:15:38.573Z,95.3
2017-08-22T02:16:45.723Z,95.6
2017-08-22T02:17:53.193Z,95.7
2017-08-22T02:19:00.674Z,95.6
2017-08-22T02:20:08.447Z,95.3
2017-08-22T02:21:16.151Z,94.6
2017-08-22T02:22:23.630Z,94.4
2017-08-22T02:23:30.772Z,93.5
2017-08-22T02:24:38.248Z,94.4
2017-08-22T02:25:46.022Z,94.1
2017-08-22T02:26:53.500Z,94.7
2017-08-22T02:28:00.973Z,94.5
2017-08-22T02:29:08.452Z,94.8
2017-08-22T02:30:15.925Z,94.2
2017-08-22T02:31:23.701Z,94.5
2017-08-22T02:32:31.174Z,93.8
2017-08-22T02:33:38.652Z,94
2017-08-22T02:34:46.129Z,93.2
2017-08-22T02:35:53.606Z,94
2017-08-22T02:37:01.384Z,93.6
2017-08-22T02:38:08.852Z,93.5
2017-08-22T02:39:16.327Z,93.7
2017-08-22T02:40:23.472Z,94.4
2017-08-22T02:41:30.946Z,94.7
2017-08-22T02:42:38.720Z,95
2017-08-22T02:43:46.194Z,95.6
2017-08-22T02:44:53.671Z,95.3
2017-08-22T02:46:01.147Z,94.4
2017-08-22T02:47:08.617Z,94.8
2017-08-22T02:48:16.390Z,94.5
2017-08-22T02:49:24.086Z,94.5
2017-08-22T02:50:31.561Z,93
2017-08-22T02:51:38.702Z,94
2017-08-22T02:52:46.179Z,94.4
2017-08-22T02:53:53.989Z,95.1
2017-08-22T02:55:01.465Z,95.9
2017-08-22T02:56:08.939Z,95.8
2017-08-22T02:57:16.419Z,95.5
2017-08-22T02:58:23.566Z,95.1
2017-08-22T02:59:31.022Z,94.6
2017-08-22T03:00:38.165Z,94.1
2017-08-22T03:01:45.644Z,94.2
2017-08-22T03:02:53.118Z,94.2
2017-08-22T03:04:00.593Z,94.2
2017-08-22T03:05:08.370Z,94.9
2017-08-22T03:06:15.517Z,93.6
2017-08-22T03:07:22.671Z,94.5
2017-08-22T03:08:29.812Z,94.1
2017-08-22T03:09:37.286Z,94.2
2017-08-22T03:10:45.109Z,95
2017-08-22T03:11:52.592Z,94
2017-08-22T03:13:00.059Z,93
2017-08-22T03:14:07.531Z,92
2017-08-22T03:15:15.005Z,92.2
2017-08-22T03:16:22.834Z,92.7
2017-08-22T03:17:29.670Z,93.2
2017-08-22T03:18:37.153Z,93
2017-08-22T03:19:44.624Z,94.6
2017-08-22T03:20:51.774Z,94.8
2017-08-22T03:21:59.273Z,95.4
2017-08-22T03:23:06.751Z,95.7
2017-08-22T03:24:14.232Z,95.4
2017-08-22T03:25:21.714Z,95.3
2017-08-22T03:26:29.189Z,94.7
2017-08-22T03:27:37.010Z,94.7
2017-08-22T03:28:44.482Z,94.2
2017-08-22T03:29:51.956Z,93.6
2017-08-22T03:30:59.426Z,94.1
2017-08-22T03:32:06.898Z,95
2017-08-22T03:33:14.720Z,94.8
2017-08-22T03:34:22.194Z,94.9
2017-08-22T03:35:29.664Z,95.4
2017-08-22T03:36:37.145Z,95.2
2017-08-22T03:37:44.293Z,94.8
2017-08-22T03:38:52.067Z,94.5
2017-08-22T03:39:59.541Z,94.6
2017-08-22T03:41:07.018Z,95.6
2017-08-22T03:42:14.166Z,94.2
2017-08-22T03:43:21.660Z,94.8
2017-08-22T03:44:29.439Z,95
2017-08-22T03:45:36.585Z,94.6
2017-08-22T03:46:44.060Z,94.6
2017-08-22T03:47:51.545Z,94.3
2017-08-22T03:48:58.696Z,94.7
2017-08-22T03:50:06.467Z,94.9
2017-08-22T03:51:13.939Z,95.4
2017-08-22T03:52:21.414Z,95.9
2017-08-22T03:53:28.888Z,95.5
2017-08-22T03:54:36.365Z,95.8
2017-08-22T03:55:44.142Z,96.3
2017-08-22T03:56:51.630Z,96.7
2017-08-22T03:57:59.098Z,96.3
2017-08-22T03:59:06.572Z,96
2017-08-22T04:01:36.104Z,96.8
2017-08-22T04:02:43.247Z,96.2
2017-08-22T04:03:50.727Z,96
2017-08-22T04:04:58.203Z,95.9
2017-08-22T04:06:05.980Z,95.8
2017-08-22T04:07:13.459Z,95.9
2017-08-22T04:08:20.937Z,96
2017-08-22T04:09:28.412Z,96
2017-08-22T04:10:35.890Z,96.2
2017-08-22T04:11:43.665Z,96.3
2017-08-22T04:12:51.147Z,96.3
2017-08-22T04:13:58.627Z,96.6
2017-08-22T04:15:06.097Z,96.5
2017-08-22T04:16:13.234Z,97.1
2017-08-22T04:17:20.343Z,97.4
2017-08-22T04:18:27.814Z,97.5
2017-08-22T04:19:35.289Z,97.1
2017-08-22T04:20:42.430Z,97
2017-08-22T04:21:49.581Z,95.6
2017-08-22T04:22:57.346Z,94.9
2017-08-22T04:24:04.487Z,95.7
2017-08-22T04:25:11.965Z,95.9
2017-08-22T04:26:19.438Z,95.7
2017-08-22T04:27:26.916Z,95.7
2017-08-22T04:28:34.389Z,95.9
2017-08-22T04:29:41.867Z,95.6
2017-08-22T04:30:49.017Z,95.8
2017-08-22T04:31:56.162Z,96
2017-08-22T04:33:03.633Z,96.4
2017-08-22T04:34:11.403Z,96.8
2017-08-22T04:35:18.877Z,95.8
2017-08-22T04:36:26.347Z,95.6
2017-08-22T04:37:33.822Z,96
2017-08-22T04:38:41.293Z,96.2
2017-08-22T04:39:49.070Z,96
2017-08-22T04:40:56.542Z,96
2017-08-22T04:42:04.015Z,95.7
2017-08-22T04:43:11.496Z,95.4
2017-08-22T04:44:18.650Z,95.7
2017-08-22T04:45:26.117Z,95.6
2017-08-22T04:46:33.601Z,95.6
2017-08-22T04:47:41.064Z,95.7
2017-08-22T04:48:48.534Z,96
2017-08-22T04:49:56.011Z,95.9
2017-08-22T04:51:03.465Z,96.9
2017-08-22T04:52:10.942Z,96.6
2017-08-22T04:53:18.419Z,96.3
2017-08-22T04:54:25.888Z,96.1
2017-08-22T04:55:33.050Z,95.5
2017-08-22T04:56:40.494Z,95.5
2017-08-22T04:57:47.658Z,94.9
2017-08-22T04:58:55.129Z,95
2017-08-22T05:00:02.617Z,95.2
2017-08-22T05:01:10.085Z,95.8
2017-08-22T05:02:17.862Z,96.4
2017-08-22T05:03:25.031Z,96.4
2017-08-22T05:04:32.173Z,96.5
2017-08-22T05:05:39.651Z,96.6
2017-08-22T05:06:47.134Z,96.9
2017-08-22T05:07:54.604Z,96.5
2017-08-22T05:09:02.077Z,96.5
2017-08-22T05:10:09.223Z,96.2
2017-08-22T05:11:16.703Z,96.1
2017-08-22T05:12:24.176Z,96.1
2017-08-22T05:13:31.964Z,95.9
2017-08-22T05:14:39.438Z,95.8
2017-08-22T05:15:46.921Z,96.1
2017-08-22T05:16:54.392Z,96.3
2017-08-22T05:18:01.860Z,95.9
2017-08-22T05:19:09.641Z,95.8
2017-08-22T05:20:17.112Z,95.3
2017-08-22T05:21:24.582Z,95.4
2017-08-22T05:22:32.055Z,96.3
2017-08-22T05:23:39.524Z,96.2
2017-08-22T05:24:46.994Z,96.4
2017-08-22T05:25:54.149Z,96.2
2017-08-22T05:27:01.301Z,96.4
2017-08-22T05:28:08.779Z,95.7
2017-08-22T05:29:16.248Z,95.5
2017-08-22T05:30:24.025Z,95.5
2017-08-22T05:31:31.497Z,95.5
2017-08-22T05:32:38.973Z,95.6
2017-08-22T05:33:46.456Z,96.1
2017-08-22T05:34:53.930Z,96
2017-08-22T05:36:01.702Z,95.9
2017-08-22T05:37:09.190Z,95.8
2017-08-22T05:38:16.665Z,95.3
2017-08-22T05:39:24.153Z,94.7
2017-08-22T05:40:31.628Z,94.3
2017-08-22T05:41:39.395Z,94.2
2017-08-22T05:42:46.870Z,94.8
2017-08-22T05:43:54.337Z,95
2017-08-22T05:45:01.809Z,94.8
2017-08-22T05:46:09.284Z,95.2
2017-08-22T05:47:16.751Z,95
2017-08-22T05:48:24.230Z,95.4
2017-08-22T05:49:31.703Z,95.8
2017-08-22T05:50:38.855Z,96
2017-08-22T05:51:46.330Z,95.9
2017-08-22T05:52:54.108Z,96.2
2017-08-22T05:54:01.578Z,95.8
2017-08-22T05:55:09.056Z,95.3
2017-08-22T05:56:16.545Z,95.7
2017-08-22T05:57:23.686Z,96
2017-08-22T05:58:31.460Z,95.7
2017-08-22T05:59:38.940Z,95.8
2017-08-22T06:00:46.423Z,95.6
2017-08-22T06:01:53.893Z,95.7
2017-08-22T06:03:01.368Z,95.7
2017-08-22T06:04:09.145Z,95.8
2017-08-22T06:05:16.628Z,95.3
2017-08-22T06:06:24.100Z,94.7
2017-08-22T06:07:31.570Z,95.2
2017-08-22T06:08:39.043Z,95.1
2017-08-22T06:09:46.819Z,95.4
2017-08-22T06:10:54.288Z,95.2
2017-08-22T06:12:01.662Z,95.2
2017-08-22T06:13:09.142Z,94.9
2017-08-22T06:14:16.624Z,94.5
2017-08-22T06:15:24.396Z,94.4
2017-08-22T06:16:31.912Z,94.6
2017-08-22T06:17:39.080Z,94.1
2017-08-22T06:18:46.563Z,93.7
2017-08-22T06:19:54.040Z,93.7
2017-08-22T06:21:01.810Z,93.7
2017-08-22T06:22:09.311Z,93.7
2017-08-22T06:23:16.783Z,93.6
2017-08-22T06:24:24.255Z,93.9
2017-08-22T06:25:31.727Z,93.7
2017-08-22T06:26:39.213Z,94.2
2017-08-22T06:27:46.686Z,93.6
2017-08-22T06:28:53.835Z,93.3
2017-08-22T06:30:01.315Z,93.6
2017-08-22T06:31:08.795Z,93
2017-08-22T06:32:16.571Z,92.4
2017-08-22T06:33:24.094Z,92.6
2017-08-22T06:34:31.570Z,91.6
2017-08-22T06:35:39.048Z,91.7
2017-08-22T06:36:46.524Z,91.8
2017-08-22T06:37:54.307Z,91.8
2017-08-22T06:39:01.783Z,91.3
2017-08-22T06:40:09.256Z,92
2017-08-22T06:41:16.401Z,90.8
2017-08-22T06:42:23.881Z,92.2
2017-08-22T06:43:31.660Z,90.7
2017-08-22T06:44:39.135Z,90.9
2017-08-22T06:45:46.315Z,91.4
2017-08-22T06:46:53.794Z,91.8
2017-08-22T06:48:00.947Z,91.7
2017-08-22T06:49:08.440Z,90.9
2017-08-22T06:50:15.938Z,90.4
2017-08-22T06:51:23.415Z,90
2017-08-22T06:52:30.890Z,89.4
2017-08-22T06:53:38.665Z,90.4
2017-08-22T06:54:46.144Z,90.4
2017-08-22T06:55:53.618Z,87.2
2017-08-22T06:57:01.092Z,88.4
2017-08-22T06:58:08.229Z,90.1
2017-08-22T06:59:16.010Z,89.4
2017-08-22T07:00:23.483Z,87.2
2017-08-22T07:01:30.956Z,88.3
2017-08-22T07:02:38.438Z,89.7
2017-08-22T07:03:45.917Z,89.2
2017-08-22T07:04:53.705Z,89.5
2017-08-22T07:06:01.182Z,85.7
2017-08-22T07:07:08.663Z,84.9
2017-08-22T07:08:16.162Z,86.8
2017-08-22T07:09:23.647Z,85.2
2017-08-22T07:10:31.094Z,83.6
2017-08-22T07:11:38.584Z,83.1
2017-08-22T07:12:45.732Z,86.6
2017-08-22T07:13:52.883Z,86.6
2017-08-22T07:15:00.357Z,84.9
2017-08-22T07:16:08.010Z,83
2017-08-22T07:17:15.489Z,83.8
2017-08-22T07:18:22.962Z,83.8
2017-08-22T07:19:30.442Z,83.8
2017-08-22T07:20:37.923Z,84.5
2017-08-22T07:21:45.758Z,85.4
2017-08-22T07:22:53.238Z,85.3
2017-08-22T07:24:00.714Z,84.2
2017-08-22T07:25:08.189Z,84.4
2017-08-22T07:26:15.665Z,83.1
2017-08-22T07:27:23.116Z,82.8
2017-08-22T07:28:30.592Z,84.6
2017-08-22T07:29:38.092Z,84
2017-08-22T07:30:45.234Z,83
2017-08-22T07:31:52.720Z,83.5
2017-08-22T07:33:00.507Z,84.8
2017-08-22T07:34:07.985Z,85.6
2017-08-22T07:35:15.132Z,84.5
2017-08-22T07:36:22.624Z,81.2
2017-08-22T07:37:30.100Z,81
2017-08-22T07:38:37.876Z,79.3
2017-08-22T07:39:45.038Z,81.3
2017-08-22T07:40:52.517Z,81.2
2017-08-22T07:42:00.003Z,81
2017-08-22T07:43:07.158Z,82
2017-08-22T07:44:14.938Z,84.3
2017-08-22T07:45:22.419Z,82.1
2017-08-22T07:46:29.900Z,80.9
2017-08-22T07:47:37.043Z,82.6
2017-08-22T07:48:44.535Z,83
2017-08-22T07:49:52.310Z,82.9
2017-08-22T07:50:59.795Z,80
2017-08-22T07:52:07.273Z,80.9
2017-08-22T07:53:14.753Z,81.7
2017-08-22T07:54:22.228Z,82.1
2017-08-22T07:55:29.712Z,78.5
2017-08-22T07:57:59.272Z,79.4
2017-08-22T07:59:06.750Z,77.9
2017-08-22T08:00:14.528Z,79.7
2017-08-22T08:01:22.003Z,79.2
2017-08-22T08:02:29.481Z,80.7
2017-08-22T08:03:36.963Z,80.5
2017-08-22T08:04:44.449Z,80.3
2017-08-22T08:05:52.230Z,78.4
2017-08-22T08:06:59.705Z,78.7
2017-08-22T08:08:07.187Z,77.5
2017-08-22T08:09:14.666Z,77.3
2017-08-22T08:10:22.146Z,78.9
2017-08-22T08:11:29.937Z,78.5
2017-08-22T08:12:37.419Z,77.3
2017-08-22T08:13:44.901Z,77.2
2017-08-22T08:14:52.387Z,78.2
2017-08-22T08:15:59.875Z,75.1
2017-08-22T08:17:07.659Z,76.6
2017-08-22T08:18:15.145Z,78.5
2017-08-22T08:19:22.624Z,77.8
2017-08-22T08:20:29.777Z,75.3
2017-08-22T08:21:36.620Z,75.2
2017-08-22T08:22:44.099Z,74.1
2017-08-22T08:23:51.254Z,74.3
2017-08-22T08:24:58.733Z,74.9
2017-08-22T08:26:05.885Z,75.4
2017-08-22T08:27:13.663Z,74.6
2017-08-22T08:28:21.152Z,75.7
2017-08-22T08:29:28.633Z,75
2017-08-22T08:31:58.182Z,73.7
2017-08-22T08:33:05.963Z,72.3
2017-08-22T08:34:13.464Z,74.8
2017-08-22T08:35:20.612Z,76.4
2017-08-22T08:36:28.096Z,75.9
2017-08-22T08:37:35.597Z,76.8
2017-08-22T08:38:43.377Z,74.8
2017-08-22T08:39:50.861Z,72.9
2017-08-22T08:40:58.353Z,72.6
2017-08-22T08:42:05.835Z,73.5
2017-08-22T08:43:13.315Z,74
2017-08-22T08:44:20.789Z,72.7
2017-08-22T08:46:50.338Z,73.3
2017-08-22T08:47:57.821Z,72.2
2017-08-22T08:49:05.298Z,69
2017-08-22T08:50:13.079Z,70.6
2017-08-22T08:51:20.559Z,68.1
2017-08-22T08:52:28.039Z,69.4
2017-08-22T08:53:35.521Z,71.7
2017-08-22T08:54:42.675Z,71.8
2017-08-22T08:57:12.529Z,70.9
2017-08-22T08:58:20.012Z,70.3
2017-08-22T08:59:27.494Z,67.4
2017-08-22T09:00:34.970Z,67.1
2017-08-22T09:01:42.454Z,67.5
2017-08-22T09:02:49.945Z,68
2017-08-22T09:03:57.441Z,69.3
2017-08-22T09:05:04.600Z,71.4
2017-08-22T09:06:11.750Z,72.4
2017-08-22T09:07:19.204Z,72.1
2017-08-22T09:08:26.685Z,70.1
2017-08-22T09:09:34.166Z,68.2
2017-08-22T09:10:41.651Z,69.3
2017-08-22T09:11:48.810Z,70.8
2017-08-22T09:12:55.933Z,68.9
2017-08-22T09:14:03.092Z,68
2017-08-22T09:15:10.570Z,67.3
2017-08-22T09:16:17.727Z,67.6
2017-08-22T09:17:25.206Z,69.7
2017-08-22T09:18:32.985Z,67.1
2017-08-22T09:19:40.469Z,68.8
2017-08-22T09:20:47.954Z,68.5
2017-08-22T09:21:55.439Z,67.2
2017-08-22T09:23:02.926Z,66.8
2017-08-22T09:24:10.408Z,63
2017-08-22T09:25:17.892Z,65.6
2017-08-22T09:26:25.373Z,66.9
2017-08-22T09:27:32.856Z,66.3
2017-08-22T09:28:40.354Z,66.4
2017-08-22T09:29:48.141Z,67.6
2017-08-22T09:30:55.620Z,64.9
2017-08-22T09:32:03.102Z,65
2017-08-22T09:33:10.593Z,64.9
2017-08-22T09:34:18.072Z,63.3
2017-08-22T09:35:25.868Z,64.3
2017-08-22T09:36:33.354Z,66.4
2017-08-22T09:37:40.856Z,66.5
2017-08-22T09:38:48.332Z,66
2017-08-22T09:39:55.815Z,66
2017-08-22T09:41:03.290Z,64.3
2017-08-22T09:42:10.793Z,65.3
2017-08-22T09:43:17.937Z,59.9
2017-08-22T09:44:25.423Z,61.3
2017-08-22T09:45:32.912Z,63.6
2017-08-22T09:46:40.700Z,63.9
2017-08-22T09:47:48.200Z,62.6
2017-08-22T09:48:55.679Z,64.4
2017-08-22T09:50:03.177Z,60.7
2017-08-22T09:51:10.652Z,59.1
2017-08-22T09:52:18.446Z,62.7
2017-08-22T09:54:47.995Z,60.1
2017-08-22T09:55:55.488Z,61.6
2017-08-22T09:57:02.645Z,61.6
2017-08-22T09:58:10.105Z,61.4
2017-08-22T09:59:17.255Z,58
2017-08-22T10:00:24.732Z,56
2017-08-22T10:01:32.226Z,60
2017-08-22T10:02:39.709Z,56
2017-08-22T10:03:47.192Z,60.1
2017-08-22T10:04:54.672Z,54.6
2017-08-22T10:06:02.155Z,54.6
2017-08-22T10:07:09.315Z,57.6
2017-08-22T10:08:16.465Z,58.3
2017-08-22T10:09:23.913Z,58.5
2017-08-22T10:10:31.399Z,55.4
2017-08-22T10:11:38.894Z,54.4
2017-08-22T10:12:46.380Z,55
2017-08-22T10:13:53.865Z,54.6
2017-08-22T10:15:01.650Z,58.1
2017-08-22T10:16:09.135Z,54
2017-08-22T10:17:16.290Z,55.8
2017-08-22T10:18:23.778Z,54.8
2017-08-22T10:19:31.263Z,55.5
2017-08-22T10:20:38.744Z,54.9
2017-08-22T10:21:46.233Z,55.4
2017-08-22T10:22:53.713Z,52.3
2017-08-22T10:24:01.203Z,55.6
2017-08-22T10:25:08.352Z,54.3
2017-08-22T10:26:16.135Z,57.4
2017-08-22T10:27:23.617Z,51.9
2017-08-22T10:28:31.098Z,54.5
2017-08-22T10:29:38.587Z,54.1
2017-08-22T10:30:46.064Z,55.5
2017-08-22T10:31:53.857Z,56.8
2017-08-22T10:33:01.010Z,52.3
2017-08-22T10:34:08.490Z,51.6
2017-08-22T10:35:15.972Z,55.5
2017-08-22T10:36:23.460Z,56.2
2017-08-22T10:37:31.492Z,52.5
2017-08-22T10:38:38.962Z,53.7
2017-08-22T10:39:46.458Z,51.2
2017-08-22T10:40:53.946Z,50.7
2017-08-22T10:42:01.094Z,52.7
2017-08-22T10:43:08.874Z,50.8
2017-08-22T10:44:16.361Z,50.3
2017-08-22T10:45:23.848Z,50.6
2017-08-22T10:46:31.329Z,49.8
2017-08-22T10:47:38.839Z,52.2
2017-08-22T10:48:46.624Z,51.4
2017-08-22T10:49:54.109Z,47.7
2017-08-22T10:51:01.594Z,47.3
2017-08-22T10:52:09.081Z,49.5
2017-08-22T10:53:16.565Z,53.1
2017-08-22T10:54:24.361Z,47.6
2017-08-22T10:55:31.838Z,48.7
2017-08-22T10:56:39.322Z,49.3
2017-08-22T10:57:46.808Z,49.1
2017-08-22T10:58:54.287Z,54.7
2017-08-22T11:00:01.768Z,50.6
2017-08-22T11:01:09.252Z,51.4
2017-08-22T11:02:16.737Z,50.1
2017-08-22T11:03:24.219Z,55.1
2017-08-22T11:04:31.703Z,52.5
2017-08-22T11:05:39.514Z,50.6
2017-08-22T11:06:46.993Z,55.7
2017-08-22T11:07:54.482Z,56.3
2017-08-22T11:09:01.968Z,52
2017-08-22T11:10:09.458Z,51.6
2017-08-22T11:11:17.248Z,52.9
2017-08-22T11:12:24.735Z,47.9
2017-08-22T11:13:32.223Z,50.6
2017-08-22T11:14:39.700Z,49.3
2017-08-22T11:15:47.183Z,47.9
2017-08-22T11:16:54.968Z,47.9
2017-08-22T11:18:02.121Z,48.3
2017-08-22T11:19:09.611Z,47.4
2017-08-22T11:20:17.092Z,51.7
2017-08-22T11:21:24.250Z,50.7
2017-08-22T11:22:32.030Z,47.5
2017-08-22T11:23:39.516Z,49.8
2017-08-22T11:24:47.018Z,49.9
2017-08-22T11:25:54.504Z,52.3
2017-08-22T11:27:02.233Z,47.4
2017-08-22T11:28:10.026Z,48.1
2017-08-22T11:29:17.534Z,47.3
2017-08-22T11:30:25.020Z,50.6
2017-08-22T11:31:32.189Z,50.6
2017-08-22T11:32:39.348Z,52
2017-08-22T11:33:47.137Z,48.9
2017-08-22T11:34:54.622Z,46.6
2017-08-22T11:36:02.124Z,46.7
2017-08-22T11:37:09.639Z,49.6
2017-08-22T11:38:17.123Z,49.5
2017-08-22T11:39:24.607Z,48
2017-08-22T11:40:32.096Z,47.9
2017-08-22T11:41:39.265Z,49.6
2017-08-22T11:42:46.753Z,51.4
2017-08-22T11:43:54.254Z,48.5
2017-08-22T11:45:02.044Z,45.1
2017-08-22T11:46:09.197Z,48.5
2017-08-22T11:47:16.677Z,49.4
2017-08-22T11:48:24.184Z,48.5
2017-08-22T11:49:31.670Z,45.4
2017-08-22T11:50:39.455Z,46.6
2017-08-22T11:51:46.942Z,44.3
2017-08-22T11:52:54.454Z,45.8
2017-08-22T11:54:01.618Z,48.2
2017-08-22T11:55:09.101Z,49.4
2017-08-22T11:56:16.897Z,47.2
2017-08-22T11:57:24.385Z,48
2017-08-22T11:58:31.866Z,46.3
2017-08-22T11:59:39.350Z,45.8
2017-08-22T12:00:46.517Z,44.8
2017-08-22T12:01:54.300Z,45.2
2017-08-22T12:03:01.451Z,44.3
2017-08-22T12:04:08.608Z,46.5
2017-08-22T12:05:16.093Z,45.1
2017-08-22T12:06:23.249Z,48.6
2017-08-22T12:07:30.698Z,43
2017-08-22T12:08:38.181Z,44.8
2017-08-22T12:09:45.672Z,44.7
2017-08-22T12:10:53.150Z,43.7
2017-08-22T12:12:00.644Z,46.7
2017-08-22T12:13:08.433Z,44.6
2017-08-22T12:14:15.924Z,42.5
2017-08-22T12:15:23.409Z,43.4
2017-08-22T12:16:30.896Z,43
2017-08-22T12:17:38.381Z,45.3
2017-08-22T12:18:45.869Z,44.7
2017-08-22T12:19:53.350Z,45.7
2017-08-22T12:21:00.831Z,46.4
2017-08-22T12:22:08.319Z,44
2017-08-22T12:23:15.805Z,44.6
2017-08-22T12:24:23.598Z,44.3
2017-08-22T12:25:31.080Z,43.9
2017-08-22T12:26:38.237Z,45.4
2017-08-22T12:27:45.730Z,47.4
2017-08-22T12:28:53.217Z,45.2
2017-08-22T12:30:01.002Z,44.9
2017-08-22T12:31:08.487Z,45.9
2017-08-22T12:32:15.969Z,46.8
2017-08-22T12:33:23.446Z,47.5
2017-08-22T12:34:30.934Z,45.2
2017-08-22T12:35:38.715Z,46.3
2017-08-22T12:36:46.209Z,46.5
2017-08-22T12:37:53.692Z,44.7
2017-08-22T12:39:01.175Z,45.7
2017-08-22T12:40:08.331Z,46.3
2017-08-22T12:41:15.817Z,47.6
2017-08-22T12:42:23.310Z,47
2017-08-22T12:43:30.818Z,47.2
2017-08-22T12:44:38.302Z,49.8
2017-08-22T12:45:46.088Z,45.9
2017-08-22T12:46:53.574Z,49.2
2017-08-22T12:48:01.057Z,47.7
2017-08-22T12:49:08.540Z,42.1
2017-08-22T12:50:16.033Z,45.4
2017-08-22T12:51:23.489Z,42.8
2017-08-22T12:52:30.643Z,44.5
2017-08-22T12:53:37.797Z,44.7
2017-08-22T12:54:44.964Z,43.4
2017-08-22T12:55:52.450Z,43.8
2017-08-22T12:57:00.238Z,43.3
2017-08-22T12:58:07.413Z,42.5
2017-08-22T12:59:14.894Z,42.3
2017-08-22T13:00:22.390Z,42.8
2017-08-22T13:01:29.970Z,44
2017-08-22T13:02:37.426Z,42.4
2017-08-22T13:03:44.916Z,42.7
2017-08-22T13:04:52.414Z,43.5
2017-08-22T13:05:59.909Z,45.6
2017-08-22T13:07:07.393Z,44.4
2017-08-22T13:08:14.876Z,44.9
2017-08-22T13:09:22.364Z,46.9
2017-08-22T13:10:29.855Z,47.3
2017-08-22T13:11:37.350Z,44.3
2017-08-22T13:12:45.131Z,43.7
2017-08-22T13:13:52.617Z,44.6
2017-08-22T13:15:00.103Z,43.5
2017-08-22T13:16:07.589Z,42.1
2017-08-22T13:17:15.093Z,44.5
2017-08-22T13:18:22.883Z,42.6
2017-08-22T13:19:30.369Z,42.4
2017-08-22T13:20:37.854Z,41.9
2017-08-22T13:21:45.335Z,40.9
2017-08-22T13:22:52.815Z,42.3
2017-08-22T13:24:00.607Z,44.7
2017-08-22T13:25:08.086Z,43.4
2017-08-22T13:26:15.468Z,43.2
2017-08-22T13:27:22.950Z,41.5
2017-08-22T13:28:30.110Z,44.9
2017-08-22T13:29:37.889Z,47.7
2017-08-22T13:30:45.376Z,46.1
2017-08-22T13:31:52.862Z,44.8
2017-08-22T13:33:00.352Z,46.9
2017-08-22T13:34:07.871Z,44.9
2017-08-22T13:35:15.375Z,45.7
2017-08-22T13:36:22.863Z,44.7
2017-08-22T13:37:30.353Z,45.6
2017-08-22T13:38:37.846Z,45.8
2017-08-22T13:39:45.328Z,46.5
2017-08-22T13:40:52.480Z,45.4
2017-08-22T13:41:59.963Z,46.9
2017-08-22T13:43:07.454Z,46.4
2017-08-22T13:44:14.945Z,50.2
2017-08-22T13:45:22.734Z,48
2017-08-22T13:46:30.224Z,46.1
2017-08-22T13:47:37.714Z,43
2017-08-22T13:48:45.201Z,43.8
2017-08-22T13:49:52.690Z,43.2
2017-08-22T13:51:00.473Z,43.2
2017-08-22T13:52:07.963Z,43
2017-08-22T13:53:15.452Z,43.3
2017-08-22T13:54:22.936Z,43.4
2017-08-22T13:55:30.423Z,41.3
2017-08-22T13:56:37.909Z,41.9
2017-08-22T13:57:44.732Z,39.2
2017-08-22T13:58:52.219Z,43.2
2017-08-22T13:59:59.706Z,40.8
2017-08-22T14:01:07.213Z,42.1
2017-08-22T14:02:14.714Z,44.1
2017-08-22T14:03:22.209Z,45.2
2017-08-22T14:04:29.701Z,45.7
2017-08-22T14:05:37.189Z,46
2017-08-22T14:06:45.031Z,44.9
2017-08-22T14:07:51.859Z,44.7
2017-08-22T14:08:59.349Z,45.1
2017-08-22T14:10:06.837Z,45.4
2017-08-22T14:11:14.327Z,47.4
2017-08-22T14:12:22.168Z,47.1
2017-08-22T14:13:29.660Z,44
2017-08-22T14:14:37.146Z,42.5
2017-08-22T14:15:44.633Z,42.3
2017-08-22T14:16:52.122Z,44.1
2017-08-22T14:17:59.582Z,42.5
2017-08-22T14:19:07.071Z,41.6
2017-08-22T14:20:14.562Z,41
2017-08-22T14:21:22.053Z,42.8
2017-08-22T14:22:29.537Z,42
2017-08-22T14:23:37.325Z,42.4
2017-08-22T14:24:44.809Z,45
2017-08-22T14:25:52.530Z,44.9
2017-08-22T14:27:00.015Z,39.8
2017-08-22T14:28:07.505Z,40.9
2017-08-22T14:29:15.016Z,42.2
2017-08-22T14:30:22.506Z,43.4
2017-08-22T14:31:29.671Z,43
2017-08-22T14:32:36.832Z,41.3
2017-08-22T14:33:44.320Z,42.4
2017-08-22T14:34:51.813Z,42.8
2017-08-22T14:35:59.306Z,44.1
2017-08-22T14:37:06.796Z,47
2017-08-22T14:38:14.284Z,46
2017-08-22T14:39:21.770Z,43.5
2017-08-22T14:40:29.555Z,42.2
2017-08-22T14:41:36.716Z,42.5
2017-08-22T14:42:43.871Z,44.3
2017-08-22T14:43:51.371Z,41.5
2017-08-22T14:44:58.854Z,42.9
2017-08-22T14:46:06.698Z,44.6
2017-08-22T14:47:14.186Z,46.2
2017-08-22T14:48:21.025Z,46.3
2017-08-22T14:49:28.181Z,47.2
2017-08-22T14:50:35.665Z,45.1
2017-08-22T14:51:43.514Z,45.6
2017-08-22T14:52:51.000Z,45.5
2017-08-22T14:53:58.489Z,45.3
2017-08-22T14:55:05.658Z,44.2
2017-08-22T14:56:13.144Z,41
2017-08-22T14:57:20.638Z,43.4
2017-08-22T14:58:28.127Z,43.1
2017-08-22T14:59:35.614Z,43.4
2017-08-22T15:00:43.106Z,44
2017-08-22T15:01:50.597Z,43.1
2017-08-22T15:02:58.087Z,44.7
2017-08-22T15:04:05.578Z,44.5
2017-08-22T15:05:12.745Z,44.4
2017-08-22T15:06:20.232Z,44.4
2017-08-22T15:07:28.065Z,42.6
2017-08-22T15:08:35.553Z,44.1
2017-08-22T15:09:43.039Z,43.4
2017-08-22T15:10:50.536Z,43.2
2017-08-22T15:11:57.689Z,45.6
2017-08-22T15:13:05.478Z,41.5